Time;durP1;ratioP1;P1;durP2;ratioP2;P2;SDS_P1;SDS_P2;PMS_P1;PMS_P2;Temp;Humidity;BMP_temperature;BMP_pressure;BME280_temperature;BME280_humidity;BME280_pressure;Samples;Min_cycle;Max_cycle;Signal;HPM_P1;HPM_P2
2022/11/18 00:01:09;;;;;;;11.95;2.83;;;;;;;;;;5019969;28;92931;-69
2022/11/18 00:03:36;;;;;;;7.25;2.45;;;;;;;;;;5014703;28;92868;-68
2022/11/18 00:06:03;;;;;;;5.80;2.67;;;;;;;;;;5020648;27;92474;-68
2022/11/18 00:08:29;;;;;;;9.25;2.83;;;;;;;;;;5025500;27;93206;-68
2022/11/18 00:10:56;;;;;;;9.38;3.42;;;;;;;;;;5026557;28;95821;-68
2022/11/18 00:16:11;;;;;;;9.02;3.00;;;;;;;;;;5015645;28;93263;-67
2022/11/18 00:18:37;;;;;;;8.15;3.03;;;;;;;;;;5022586;27;93755;-68
2022/11/18 00:21:05;;;;;;;5.45;2.60;;;;;;;;;;5019646;27;92936;-69
2022/11/18 00:23:31;;;;;;;9.60;3.13;;;;;;;;;;5027153;27;94708;-67
2022/11/18 00:26:05;;;;;;;10.20;3.17;;;;;;;;;;5023533;28;93781;-65
2022/11/18 00:28:31;;;;;;;7.63;3.03;;;;;;;;;;5018274;27;93427;-68
2022/11/18 00:31:01;;;;;;;10.90;3.60;;;;;;;;;;5017848;27;93878;-68
2022/11/18 00:33:28;;;;;;;6.87;4.03;;;;;;;;;;5013283;27;92763;-67
2022/11/18 00:35:54;;;;;;;7.53;3.00;;;;;;;;;;5015584;28;96418;-68
2022/11/18 00:38:21;;;;;;;6.65;3.13;;;;;;;;;;5016654;28;92459;-68
2022/11/18 00:40:47;;;;;;;10.10;2.85;;;;;;;;;;5022594;28;93408;-68
2022/11/18 00:43:13;;;;;;;12.82;2.97;;;;;;;;;;5013488;28;93171;-68
2022/11/18 00:45:41;;;;;;;8.88;3.13;;;;;;;;;;5012491;28;92749;-68
2022/11/18 00:48:07;;;;;;;10.55;3.08;;;;;;;;;;5030412;28;93549;-68
2022/11/18 00:50:34;;;;;;;10.27;3.80;;;;;;;;;;5024452;27;93431;-68
2022/11/18 00:53:00;;;;;;;10.48;3.20;;;;;;;;;;5018197;27;91760;-68
2022/11/18 00:55:26;;;;;;;3.90;2.80;;;;;;;;;;5012375;28;93797;-68
2022/11/18 00:57:52;;;;;;;8.57;3.17;;;;;;;;;;5013308;28;93168;-68
2022/11/18 01:00:19;;;;;;;6.85;3.20;;;;;;;;;;5024650;27;95017;-67
2022/11/18 01:02:45;;;;;;;8.45;2.80;;;;;;;;;;5015931;28;94825;-69
2022/11/18 01:05:11;;;;;;;8.07;2.97;;;;;;;;;;5024303;27;92668;-69
2022/11/18 01:07:38;;;;;;;8.50;3.05;;;;;;;;;;5021516;27;96616;-68
2022/11/18 01:10:04;;;;;;;9.52;2.90;;;;;;;;;;5024790;27;94532;-69
2022/11/18 01:15:19;;;;;;;5.85;2.90;;;;;;;;;;5023490;27;93091;-68
2022/11/18 01:17:46;;;;;;;6.57;3.00;;;;;;;;;;5027803;28;92442;-68
2022/11/18 01:20:13;;;;;;;6.68;3.00;;;;;;;;;;5011323;27;94319;-69
2022/11/18 01:22:39;;;;;;;11.63;3.75;;;;;;;;;;5022817;27;94481;-68
2022/11/18 01:25:06;;;;;;;8.40;3.10;;;;;;;;;;5010246;28;94983;-69
2022/11/18 01:27:32;;;;;;;5.72;2.65;;;;;;;;;;5019750;27;95603;-67
2022/11/18 01:29:59;;;;;;;5.85;3.30;;;;;;;;;;5023296;28;93587;-68
2022/11/18 01:32:26;;;;;;;5.30;2.45;;;;;;;;;;5012791;27;93250;-67
2022/11/18 01:34:52;;;;;;;10.50;3.50;;;;;;;;;;5010835;28;93484;-68
2022/11/18 01:37:19;;;;;;;8.98;3.08;;;;;;;;;;5023899;28;94027;-67
2022/11/18 01:39:45;;;;;;;4.60;3.00;;;;;;;;;;5013938;28;93645;-68
2022/11/18 01:42:16;;;;;;;9.65;4.13;;;;;;;;;;5027673;27;92824;-67
2022/11/18 01:44:42;;;;;;;;;;;;;;;;;;5029545;27;92508;-68
2022/11/18 01:47:08;;;;;;;9.57;3.22;;;;;;;;;;5023403;27;123374;-68
2022/11/18 01:49:34;;;;;;;12.48;3.30;;;;;;;;;;5012420;28;95873;-68
2022/11/18 01:52:01;;;;;;;5.78;2.85;;;;;;;;;;5017185;28;92512;-69
2022/11/18 01:54:32;;;;;;;7.22;3.47;;;;;;;;;;5014332;28;94062;-68
2022/11/18 01:57:00;;;;;;;6.30;2.95;;;;;;;;;;5018524;28;93470;-68
2022/11/18 01:59:29;;;;;;;12.77;3.35;;;;;;;;;;5025649;28;92599;-69
2022/11/18 02:01:56;;;;;;;9.52;3.28;;;;;;;;;;5018250;28;93489;-68
2022/11/18 02:04:25;;;;;;;11.18;3.38;;;;;;;;;;5016693;28;92505;-68
2022/11/18 02:06:53;;;;;;;11.50;2.92;;;;;;;;;;5029931;28;94145;-67
2022/11/18 02:09:19;;;;;;;8.70;3.10;;;;;;;;;;5019682;28;94179;-68
2022/11/18 02:11:55;;;;;;;10.35;3.20;;;;;;;;;;5024319;28;93914;-69
2022/11/18 02:14:40;;;;;;;13.25;4.13;;;;;;;;;;5027710;28;94776;-68
2022/11/18 02:17:12;;;;;;;8.82;3.42;;;;;;;;;;5015773;28;93535;-68
2022/11/18 02:19:54;;;;;;;8.88;3.35;;;;;;;;;;5015949;28;92504;-68
2022/11/18 02:22:38;;;;;;;10.18;3.22;;;;;;;;;;5019963;28;93584;-69
2022/11/18 02:25:20;;;;;;;7.63;3.45;;;;;;;;;;5022980;27;93725;-67
2022/11/18 02:28:04;;;;;;;7.68;2.85;;;;;;;;;;5016664;28;93329;-66
2022/11/18 02:30:32;;;;;;;10.13;3.13;;;;;;;;;;5021474;27;94010;-68
2022/11/18 02:33:03;;;;;;;12.05;3.33;;;;;;;;;;5022916;28;91785;-68
2022/11/18 02:35:38;;;;;;;7.35;3.03;;;;;;;;;;5021141;28;94077;-69
2022/11/18 02:38:11;;;;;;;8.73;3.00;;;;;;;;;;5024978;28;93646;-69
2022/11/18 02:40:43;;;;;;;6.20;3.42;;;;;;;;;;5013631;28;96432;-68
2022/11/18 02:43:44;;;;;;;4.57;2.83;;;;;;;;;;5021788;27;95523;-68
2022/11/18 02:46:13;;;;;;;7.72;3.15;;;;;;;;;;4988914;28;92609;-69
2022/11/18 02:48:43;;;;;;;8.75;3.67;;;;;;;;;;4986959;28;92473;-68
2022/11/18 02:51:10;;;;;;;9.57;3.20;;;;;;;;;;4987834;28;93844;-68
2022/11/18 02:53:37;;;;;;;7.10;3.42;;;;;;;;;;4991495;28;94496;-68
2022/11/18 02:56:05;;;;;;;7.43;3.20;;;;;;;;;;4987175;28;93693;-68
2022/11/18 02:58:31;;;;;;;7.95;3.20;;;;;;;;;;4971672;28;93581;-69
2022/11/18 03:00:59;;;;;;;6.03;3.30;;;;;;;;;;4988725;28;94249;-69
2022/11/18 03:03:25;;;;;;;9.93;2.83;;;;;;;;;;4985349;28;93418;-69
2022/11/18 03:05:59;;;;;;;8.32;3.35;;;;;;;;;;4987233;28;96417;-68
2022/11/18 03:08:28;;;;;;;6.18;3.03;;;;;;;;;;4988060;28;95503;-68
2022/11/18 03:11:02;;;;;;;7.93;3.05;;;;;;;;;;4989236;28;93680;-68
2022/11/18 03:13:34;;;;;;;9.90;3.13;;;;;;;;;;4971946;28;92622;-69
2022/11/18 03:16:05;;;;;;;10.18;3.55;;;;;;;;;;4986387;28;93732;-68
2022/11/18 03:18:50;;;;;;;9.35;3.50;;;;;;;;;;4979893;28;94642;-67
2022/11/18 03:21:19;;;;;;;5.78;3.25;;;;;;;;;;5019692;28;93236;-68
2022/11/18 03:23:53;;;;;;;5.25;2.90;;;;;;;;;;5033517;27;92120;-68
2022/11/18 03:26:24;;;;;;;5.88;2.60;;;;;;;;;;5026254;27;93958;-68
2022/11/18 03:29:03;;;;;;;7.93;3.17;;;;;;;;;;5025342;28;92594;-68
2022/11/18 03:31:34;;;;;;;9.23;3.58;;;;;;;;;;5019389;28;95968;-68
2022/11/18 03:34:04;;;;;;;7.13;2.83;;;;;;;;;;5013523;28;92449;-69
2022/11/18 03:36:32;;;;;;;12.98;3.50;;;;;;;;;;5015277;28;93379;-68
2022/11/18 03:39:00;;;;;;;5.70;3.22;;;;;;;;;;5025325;28;94069;-68
2022/11/18 03:41:28;;;;;;;15.82;4.00;;;;;;;;;;5025282;27;93339;-67
2022/11/18 03:44:00;;;;;;;11.00;3.08;;;;;;;;;;5026274;27;93127;-69
2022/11/18 03:46:30;;;;;;;9.77;3.38;;;;;;;;;;5017168;28;94159;-68
2022/11/18 03:48:57;;;;;;;6.27;3.00;;;;;;;;;;5015227;28;91693;-68
2022/11/18 03:51:27;;;;;;;18.58;4.38;;;;;;;;;;5033214;28;92480;-69
2022/11/18 03:53:59;;;;;;;5.90;3.08;;;;;;;;;;5014016;27;92832;-68
2022/11/18 03:56:30;;;;;;;10.00;3.85;;;;;;;;;;5018691;28;94879;-68
2022/11/18 03:58:59;;;;;;;6.88;3.53;;;;;;;;;;5028172;27;93698;-68
2022/11/18 04:01:49;;;;;;;10.32;3.20;;;;;;;;;;5014925;28;92440;-69
2022/11/18 04:04:15;;;;;;;6.72;3.60;;;;;;;;;;5012023;28;93167;-68
2022/11/18 04:06:45;;;;;;;10.35;3.83;;;;;;;;;;5029065;28;93516;-68
2022/11/18 04:09:15;;;;;;;8.88;3.35;;;;;;;;;;5015567;28;92602;-68
2022/11/18 04:12:03;;;;;;;9.68;3.63;;;;;;;;;;5021077;28;93589;-67
2022/11/18 04:14:30;;;;;;;15.02;4.18;;;;;;;;;;5023131;27;92677;-69
2022/11/18 04:16:57;;;;;;;7.22;3.20;;;;;;;;;;5018699;28;92543;-69
2022/11/18 04:19:23;;;;;;;14.40;4.07;;;;;;;;;;5012912;28;93412;-68
2022/11/18 04:21:49;;;;;;;9.98;3.70;;;;;;;;;;5026262;28;94804;-68
2022/11/18 04:24:16;;;;;;;6.43;3.13;;;;;;;;;;5016495;27;95538;-67
2022/11/18 04:26:42;;;;;;;10.50;4.20;;;;;;;;;;5020407;28;93243;-68
2022/11/18 04:29:08;;;;;;;8.20;3.70;;;;;;;;;;5024494;27;93047;-68
2022/11/18 04:31:34;;;;;;;15.85;4.47;;;;;;;;;;5002545;28;93602;-68
2022/11/18 04:34:01;;;;;;;20.90;3.92;;;;;;;;;;5012238;28;93767;-68
2022/11/18 04:36:27;;;;;;;7.60;3.33;;;;;;;;;;5012779;28;94044;-68
2022/11/18 04:38:53;;;;;;;10.75;3.50;;;;;;;;;;5020776;28;92724;-67
2022/11/18 04:41:54;;;;;;;9.70;3.97;;;;;;;;;;5019002;28;92457;-69
2022/11/18 04:44:11;;;;;;;10.48;4.43;;;;;;;;;;5023651;28;93120;-68
2022/11/18 04:46:39;;;;;;;10.43;4.03;;;;;;;;;;5014880;28;95953;-68
2022/11/18 04:49:06;;;;;;;11.20;3.80;;;;;;;;;;5018540;28;92529;-69
2022/11/18 04:51:33;;;;;;;9.63;3.90;;;;;;;;;;5024379;28;94804;-69
2022/11/18 04:53:59;;;;;;;12.93;3.83;;;;;;;;;;5026685;28;94432;-68
2022/11/18 04:56:25;;;;;;;9.35;3.60;;;;;;;;;;5023802;28;93041;-69
2022/11/18 04:58:51;;;;;;;9.57;3.70;;;;;;;;;;5020877;27;93429;-66
2022/11/18 05:01:18;;;;;;;6.45;3.28;;;;;;;;;;5015137;28;92619;-67
2022/11/18 05:03:44;;;;;;;11.32;3.65;;;;;;;;;;5018009;28;93011;-68
2022/11/18 05:06:15;;;;;;;7.68;3.33;;;;;;;;;;5018099;28;93439;-67
2022/11/18 05:08:42;;;;;;;10.10;3.53;;;;;;;;;;5013976;28;92565;-68
2022/11/18 05:13:53;;;;;;;10.70;3.40;;;;;;;;;;5027546;27;93432;-67
2022/11/18 05:16:19;;;;;;;10.13;3.38;;;;;;;;;;5020892;27;93412;-68
2022/11/18 05:18:45;;;;;;;11.15;4.10;;;;;;;;;;5014533;28;93270;-68
2022/11/18 05:21:12;;;;;;;6.70;3.50;;;;;;;;;;5016523;28;92466;-67
2022/11/18 05:23:38;;;;;;;5.13;3.10;;;;;;;;;;5010156;28;94346;-68
2022/11/18 05:26:05;;;;;;;7.47;3.28;;;;;;;;;;5018270;28;93775;-69
2022/11/18 05:28:31;;;;;;;8.90;4.10;;;;;;;;;;5014851;28;91736;-67
2022/11/18 05:30:58;;;;;;;8.50;3.60;;;;;;;;;;5012388;28;92601;-67
2022/11/18 05:33:24;;;;;;;14.88;3.63;;;;;;;;;;5016770;28;93391;-67
2022/11/18 05:35:50;;;;;;;5.63;3.05;;;;;;;;;;5013937;28;94841;-67
2022/11/18 05:38:20;;;;;;;9.93;3.25;;;;;;;;;;5010428;28;96901;-68
2022/11/18 05:40:46;;;;;;;5.60;3.25;;;;;;;;;;5019302;28;93178;-68
2022/11/18 05:43:13;;;;;;;8.48;3.72;;;;;;;;;;5015927;28;93188;-67
2022/11/18 05:45:39;;;;;;;12.35;4.00;;;;;;;;;;5016715;28;93775;-68
2022/11/18 05:48:06;;;;;;;8.70;3.67;;;;;;;;;;5016573;28;92438;-68
2022/11/18 05:50:33;;;;;;;13.35;3.70;;;;;;;;;;5016073;28;93143;-68
2022/11/18 05:53:00;;;;;;;17.67;4.60;;;;;;;;;;5017428;28;93006;-68
2022/11/18 05:55:50;;;;;;;7.85;3.17;;;;;;;;;;5016643;28;92431;-68
2022/11/18 05:58:16;;;;;;;8.10;3.97;;;;;;;;;;4992792;28;93568;-68
2022/11/18 06:00:43;;;;;;;9.48;3.92;;;;;;;;;;4992414;28;97223;-68
2022/11/18 06:03:16;;;;;;;10.65;3.97;;;;;;;;;;4997264;28;92867;-68
2022/11/18 06:05:43;;;;;;;8.23;3.35;;;;;;;;;;4993927;28;94508;-69
2022/11/18 06:08:11;;;;;;;9.52;3.80;;;;;;;;;;4992781;28;94202;-68
2022/11/18 06:10:40;;;;;;;13.63;4.30;;;;;;;;;;4993557;28;92425;-68
2022/11/18 06:13:09;;;;;;;9.52;3.85;;;;;;;;;;4993742;28;93668;-68
2022/11/18 06:15:38;;;;;;;10.23;3.97;;;;;;;;;;4993872;28;92460;-68
2022/11/18 06:18:15;;;;;;;8.52;4.18;;;;;;;;;;4992961;28;93664;-68
2022/11/18 06:20:41;;;;;;;11.00;4.18;;;;;;;;;;4994261;28;93445;-67
2022/11/18 06:23:08;;;;;;;10.80;4.00;;;;;;;;;;4993691;28;92742;-68
2022/11/18 06:25:36;;;;;;;11.15;4.50;;;;;;;;;;4994049;28;94863;-68
2022/11/18 06:28:03;;;;;;;8.30;4.10;;;;;;;;;;4992278;28;93184;-69
2022/11/18 06:30:29;;;;;;;10.27;3.40;;;;;;;;;;4993441;28;94076;-68
2022/11/18 06:32:55;;;;;;;8.68;3.70;;;;;;;;;;4992970;28;93502;-68
2022/11/18 06:35:22;;;;;;;8.30;3.78;;;;;;;;;;5004155;28;92549;-69
2022/11/18 06:37:48;;;;;;;9.55;3.65;;;;;;;;;;5015644;28;92507;-68
2022/11/18 06:40:15;;;;;;;14.25;4.15;;;;;;;;;;5016214;28;93855;-67
2022/11/18 06:45:26;;;;;;;11.43;4.20;;;;;;;;;;5015045;28;93484;-68
2022/11/18 06:47:55;;;;;;;14.80;3.97;;;;;;;;;;5018768;28;94345;-68
2022/11/18 06:50:22;;;;;;;13.02;3.88;;;;;;;;;;5012819;28;94879;-68
2022/11/18 06:52:48;;;;;;;15.35;4.07;;;;;;;;;;5015894;28;93954;-67
2022/11/18 06:55:14;;;;;;;14.48;3.88;;;;;;;;;;5014702;28;92398;-69
2022/11/18 06:57:40;;;;;;;8.70;3.90;;;;;;;;;;5013595;28;93465;-67
2022/11/18 07:00:07;;;;;;;7.82;3.65;;;;;;;;;;5015595;28;94361;-69
2022/11/18 07:02:36;;;;;;;12.23;3.65;;;;;;;;;;5014189;28;92798;-69
2022/11/18 07:05:03;;;;;;;8.68;3.95;;;;;;;;;;5015934;28;96153;-68
2022/11/18 07:07:30;;;;;;;12.93;3.83;;;;;;;;;;5018523;28;94009;-67
2022/11/18 07:09:56;;;;;;;9.32;3.70;;;;;;;;;;5014606;28;92756;-69
2022/11/18 07:12:22;;;;;;;13.77;3.78;;;;;;;;;;5014058;28;93477;-68
2022/11/18 07:14:49;;;;;;;7.97;4.47;;;;;;;;;;5012945;28;95342;-68
2022/11/18 07:17:15;;;;;;;9.40;4.07;;;;;;;;;;5014281;28;97095;-70
2022/11/18 07:19:41;;;;;;;13.93;4.22;;;;;;;;;;5011693;28;93229;-69
2022/11/18 07:22:08;;;;;;;8.30;3.97;;;;;;;;;;5015315;28;92875;-69
2022/11/18 07:24:34;;;;;;;12.82;4.43;;;;;;;;;;5015281;28;94469;-70
2022/11/18 07:27:00;;;;;;;12.60;4.10;;;;;;;;;;5014131;28;93376;-69
2022/11/18 07:29:26;;;;;;;8.38;3.78;;;;;;;;;;5013660;28;92555;-69
2022/11/18 07:31:53;;;;;;;18.63;4.45;;;;;;;;;;5011266;28;92756;-69
2022/11/18 07:34:19;;;;;;;60.28;7.18;;;;;;;;;;5012614;28;92505;-69
2022/11/18 07:36:45;;;;;;;15.90;4.63;;;;;;;;;;5011715;28;93757;-69
2022/11/18 07:39:12;;;;;;;19.63;6.15;;;;;;;;;;5011614;28;96256;-68
2022/11/18 07:41:38;;;;;;;15.95;5.50;;;;;;;;;;5025403;28;93882;-69
2022/11/18 07:44:06;;;;;;;10.43;4.40;;;;;;;;;;5014818;28;93229;-68
2022/11/18 07:46:33;;;;;;;10.10;4.15;;;;;;;;;;5023473;28;94034;-68
2022/11/18 07:49:01;;;;;;;11.70;4.63;;;;;;;;;;5029266;27;93404;-68
2022/11/18 07:51:29;;;;;;;13.38;4.60;;;;;;;;;;5018037;28;93361;-68
2022/11/18 07:53:55;;;;;;;10.57;4.30;;;;;;;;;;5014534;28;93764;-68
2022/11/18 07:56:21;;;;;;;10.63;3.80;;;;;;;;;;5015207;28;93125;-69
2022/11/18 07:58:51;;;;;;;10.73;4.38;;;;;;;;;;5011996;28;93453;-67
2022/11/18 08:01:18;;;;;;;10.13;4.05;;;;;;;;;;5018892;28;92524;-69
2022/11/18 08:03:45;;;;;;;15.10;5.10;;;;;;;;;;5012681;28;94809;-69
2022/11/18 08:06:12;;;;;;;6.75;3.97;;;;;;;;;;5013901;28;93514;-68
2022/11/18 08:08:39;;;;;;;7.78;4.13;;;;;;;;;;5011344;28;92502;-68
2022/11/18 08:11:06;;;;;;;6.43;3.90;;;;;;;;;;5016130;28;92303;-68
2022/11/18 08:13:33;;;;;;;9.82;4.18;;;;;;;;;;5021273;27;93163;-68
2022/11/18 08:16:00;;;;;;;10.88;4.43;;;;;;;;;;5023174;27;93245;-68
2022/11/18 08:18:30;;;;;;;10.95;4.35;;;;;;;;;;5034524;27;94216;-68
2022/11/18 08:21:03;;;;;;;10.55;4.50;;;;;;;;;;5009233;28;91718;-69
2022/11/18 08:23:30;;;;;;;10.15;4.00;;;;;;;;;;5012301;28;92507;-69
2022/11/18 08:26:01;;;;;;;11.02;4.72;;;;;;;;;;5009736;28;93821;-67
2022/11/18 08:28:27;;;;;;;18.08;5.35;;;;;;;;;;5009327;28;94949;-66
2022/11/18 08:30:53;;;;;;;20.27;5.75;;;;;;;;;;5012303;28;95820;-68
2022/11/18 08:33:20;;;;;;;22.20;7.00;;;;;;;;;;5009258;28;93974;-68
2022/11/18 08:35:46;;;;;;;17.02;5.85;;;;;;;;;;5008158;28;92544;-68
2022/11/18 08:38:12;;;;;;;14.20;4.85;;;;;;;;;;5021133;28;94547;-69
2022/11/18 08:40:43;;;;;;;13.43;4.28;;;;;;;;;;5031597;28;92545;-68
2022/11/18 08:43:10;;;;;;;11.95;4.65;;;;;;;;;;5012810;27;93998;-67
2022/11/18 08:45:41;;;;;;;10.25;3.88;;;;;;;;;;5018915;28;92731;-68
2022/11/18 08:48:08;;;;;;;7.82;3.97;;;;;;;;;;5014951;28;92361;-68
2022/11/18 08:50:34;;;;;;;13.50;3.75;;;;;;;;;;5008863;28;94038;-68
2022/11/18 08:53:01;;;;;;;9.02;4.28;;;;;;;;;;5012580;28;94804;-68
2022/11/18 08:55:27;;;;;;;12.20;5.07;;;;;;;;;;5014936;28;92383;-68
2022/11/18 08:57:54;;;;;;;12.15;3.72;;;;;;;;;;5023225;28;93347;-69
2022/11/18 09:00:20;;;;;;;10.82;4.78;;;;;;;;;;5028307;27;92650;-69
2022/11/18 09:02:46;;;;;;;14.55;5.15;;;;;;;;;;5020594;28;93184;-70
2022/11/18 09:05:12;;;;;;;11.95;5.45;;;;;;;;;;5028976;27;92481;-68
2022/11/18 09:07:39;;;;;;;10.32;5.60;;;;;;;;;;5034963;28;92630;-67
2022/11/18 09:10:05;;;;;;;9.43;4.90;;;;;;;;;;5038802;27;94468;-69
2022/11/18 09:12:32;;;;;;;11.48;4.13;;;;;;;;;;5037860;27;93441;-69
2022/11/18 09:14:58;;;;;;;10.73;3.90;;;;;;;;;;5026718;27;92397;-68
2022/11/18 09:17:38;;;;;;;8.27;3.88;;;;;;;;;;5010447;28;94910;-69
2022/11/18 09:20:05;;;;;;;9.60;3.92;;;;;;;;;;5037343;27;92553;-69
2022/11/18 09:22:34;;;;;;;10.55;3.55;;;;;;;;;;5034646;27;92899;-68
2022/11/18 09:25:00;;;;;;;10.48;3.88;;;;;;;;;;5037952;27;94742;-68
2022/11/18 09:27:27;;;;;;;10.80;3.85;;;;;;;;;;5027020;27;92547;-69
2022/11/18 09:29:53;;;;;;;14.00;3.72;;;;;;;;;;5035877;27;93407;-68
2022/11/18 09:32:19;;;;;;;9.88;3.30;;;;;;;;;;5001658;27;93702;-69
2022/11/18 09:34:45;;;;;;;7.68;3.35;;;;;;;;;;4997916;28;91814;-68
2022/11/18 09:37:12;;;;;;;8.43;3.40;;;;;;;;;;5009112;28;93824;-68
2022/11/18 09:39:38;;;;;;;11.32;3.47;;;;;;;;;;5010937;28;93367;-68
2022/11/18 09:42:04;;;;;;;7.20;3.30;;;;;;;;;;5022642;28;96062;-68
2022/11/18 09:44:57;;;;;;;11.50;3.35;;;;;;;;;;5015472;28;93415;-69
2022/11/18 09:47:27;;;;;;;9.57;3.45;;;;;;;;;;5007287;28;92418;-69
2022/11/18 09:49:54;;;;;;;;;;;;;;;;;;5018021;28;93019;-68
2022/11/18 09:52:25;;;;;;;9.80;3.15;;;;;;;;;;5017894;28;124214;-69
2022/11/18 09:54:58;;;;;;;6.75;3.20;;;;;;;;;;5015685;28;92520;-68
2022/11/18 09:57:36;;;;;;;8.13;3.13;;;;;;;;;;5015823;28;94223;-69
2022/11/18 10:00:26;;;;;;;8.77;2.90;;;;;;;;;;5017566;28;92733;-68
2022/11/18 10:03:06;;;;;;;20.67;3.28;;;;;;;;;;5024242;28;92643;-70
2022/11/18 10:05:42;;;;;;;4.20;2.77;;;;;;;;;;5018048;27;92543;-68
2022/11/18 10:08:23;;;;;;;8.38;3.13;;;;;;;;;;5011725;28;96538;-68
2022/11/18 10:10:50;;;;;;;9.13;3.15;;;;;;;;;;5014313;28;95712;-68
2022/11/18 10:13:25;;;;;;;8.65;3.45;;;;;;;;;;5014213;28;94499;-69
2022/11/18 10:15:59;;;;;;;7.32;3.05;;;;;;;;;;5012688;28;93719;-69
2022/11/18 10:18:44;;;;;;;9.95;3.40;;;;;;;;;;5015534;28;92925;-68
2022/11/18 10:21:34;;;;;;;22.83;4.70;;;;;;;;;;5016845;28;93515;-68
2022/11/18 10:24:03;;;;;;;39.33;5.53;;;;;;;;;;5012606;28;92505;-68
2022/11/18 10:26:31;;;;;;;23.90;5.10;;;;;;;;;;5019276;28;93361;-68
2022/11/18 10:28:57;;;;;;;7.22;3.03;;;;;;;;;;5016788;28;92395;-69
2022/11/18 10:31:24;;;;;;;6.55;3.38;;;;;;;;;;5016730;28;93224;-68
2022/11/18 10:33:57;;;;;;;14.55;3.10;;;;;;;;;;5011299;28;95023;-68
2022/11/18 10:36:23;;;;;;;6.80;3.33;;;;;;;;;;5023383;28;92554;-68
2022/11/18 10:39:03;;;;;;;15.57;3.70;;;;;;;;;;5036867;27;93183;-68
2022/11/18 10:41:35;;;;;;;8.43;3.10;;;;;;;;;;5027601;27;93446;-68
2022/11/18 10:44:02;;;;;;;36.63;4.78;;;;;;;;;;5020739;27;92457;-67
2022/11/18 10:46:38;;;;;;;26.45;4.68;;;;;;;;;;5016673;28;93007;-68
2022/11/18 10:49:07;;;;;;;27.88;4.13;;;;;;;;;;5019129;28;93431;-68
2022/11/18 10:51:34;;;;;;;11.52;3.58;;;;;;;;;;5014392;28;93344;-69
2022/11/18 10:54:06;;;;;;;28.77;4.78;;;;;;;;;;5014961;28;93685;-69
2022/11/18 10:56:43;;;;;;;13.05;3.80;;;;;;;;;;5014498;28;93028;-69
2022/11/18 10:59:16;;;;;;;9.80;3.40;;;;;;;;;;5015218;28;94728;-70
2022/11/18 11:01:55;;;;;;;10.90;2.70;;;;;;;;;;4998591;28;93410;-69
2022/11/18 11:04:23;;;;;;;7.63;2.30;;;;;;;;;;5017160;28;93174;-69
2022/11/18 11:06:49;;;;;;;7.00;2.65;;;;;;;;;;5018759;28;94341;-70
2022/11/18 11:09:21;;;;;;;16.50;3.28;;;;;;;;;;5035986;27;93431;-71
2022/11/18 11:11:59;;;;;;;7.90;2.88;;;;;;;;;;5031015;27;92511;-68
2022/11/18 11:14:28;;;;;;;12.57;3.60;;;;;;;;;;5014644;28;94482;-69
2022/11/18 11:17:00;;;;;;;9.15;4.30;;;;;;;;;;5015262;28;91805;-69
2022/11/18 11:19:31;;;;;;;9.25;3.38;;;;;;;;;;5034781;27;94010;-70
2022/11/18 11:21:58;;;;;;;11.63;3.75;;;;;;;;;;5035735;28;95613;-69
2022/11/18 11:24:25;;;;;;;10.27;3.47;;;;;;;;;;5034199;27;94840;-68
2022/11/18 11:26:58;;;;;;;10.18;3.63;;;;;;;;;;5018061;27;96940;-69
2022/11/18 11:29:53;;;;;;;12.52;3.35;;;;;;;;;;5011728;28;93814;-69
2022/11/18 11:32:25;;;;;;;10.05;3.80;;;;;;;;;;5017014;27;92451;-69
2022/11/18 11:35:14;;;;;;;21.85;4.07;;;;;;;;;;5032261;27;93427;-69
2022/11/18 11:37:57;;;;;;;11.82;3.40;;;;;;;;;;5015562;28;92474;-69
2022/11/18 11:40:33;;;;;;;10.65;3.22;;;;;;;;;;5013818;28;92529;-69
2022/11/18 11:43:02;;;;;;;11.43;4.00;;;;;;;;;;5012293;28;93714;-69
2022/11/18 11:45:38;;;;;;;14.93;3.83;;;;;;;;;;5015763;28;94413;-69
2022/11/18 11:48:23;;;;;;;8.98;3.70;;;;;;;;;;5031447;28;94332;-69
2022/11/18 11:50:54;;;;;;;8.68;2.95;;;;;;;;;;5010082;28;95954;-69
2022/11/18 11:53:48;;;;;;;8.25;3.30;;;;;;;;;;5014943;28;92465;-69
2022/11/18 11:56:26;;;;;;;6.93;2.95;;;;;;;;;;5017552;28;92832;-67
2022/11/18 11:59:06;;;;;;;9.15;3.17;;;;;;;;;;5011957;28;93854;-71
2022/11/18 12:01:38;;;;;;;6.93;3.22;;;;;;;;;;5015025;28;93060;-68
2022/11/18 12:04:07;;;;;;;17.65;6.68;;;;;;;;;;5013568;28;93462;-69
2022/11/18 12:06:34;;;;;;;8.48;2.63;;;;;;;;;;5030251;27;92692;-69
2022/11/18 12:09:05;;;;;;;12.30;2.97;;;;;;;;;;5025263;27;93509;-69
2022/11/18 12:11:56;;;;;;;7.13;2.70;;;;;;;;;;5013994;28;92734;-69
2022/11/18 12:14:29;;;;;;;12.93;3.00;;;;;;;;;;4984958;28;94252;-69
2022/11/18 12:17:10;;;;;;;7.60;2.85;;;;;;;;;;4986558;28;95741;-67
2022/11/18 12:19:37;;;;;;;21.83;3.63;;;;;;;;;;4996295;28;92638;-67
2022/11/18 12:22:05;;;;;;;10.20;3.03;;;;;;;;;;4992719;28;93188;-69
2022/11/18 12:24:38;;;;;;;8.98;3.53;;;;;;;;;;4982956;28;93230;-68
2022/11/18 12:27:08;;;;;;;10.23;3.47;;;;;;;;;;4992257;28;92507;-69
2022/11/18 12:29:42;;;;;;;6.05;2.85;;;;;;;;;;4992992;28;93495;-68
2022/11/18 12:32:26;;;;;;;8.65;3.67;;;;;;;;;;4981832;28;94696;-68
2022/11/18 12:35:13;;;;;;;12.52;3.47;;;;;;;;;;4974157;28;91707;-68
2022/11/18 12:37:51;;;;;;;8.90;3.53;;;;;;;;;;4975566;28;94497;-69
2022/11/18 12:40:35;;;;;;;14.18;3.33;;;;;;;;;;4992767;28;94740;-68
2022/11/18 12:44:03;;;;;;;12.68;3.60;;;;;;;;;;4991488;28;95006;-68
2022/11/18 12:45:58;;;;;;;12.40;3.53;;;;;;;;;;4989839;28;93345;-68
2022/11/18 12:48:27;;;;;;;11.55;4.28;;;;;;;;;;4988461;28;92817;-68
2022/11/18 12:50:54;;;;;;;9.15;3.38;;;;;;;;;;4978336;28;96482;-68
2022/11/18 12:53:39;;;;;;;11.02;3.95;;;;;;;;;;4994470;28;93469;-69
2022/11/18 12:56:18;;;;;;;19.85;5.15;;;;;;;;;;5010258;28;92571;-69
2022/11/18 12:58:45;;;;;;;13.13;4.55;;;;;;;;;;5015193;28;93166;-69
2022/11/18 13:01:13;;;;;;;9.77;4.00;;;;;;;;;;5017645;27;93397;-69
2022/11/18 13:03:39;;;;;;;9.63;4.05;;;;;;;;;;5012821;28;92431;-68
2022/11/18 13:06:20;;;;;;;27.17;4.93;;;;;;;;;;5017376;28;94207;-69
2022/11/18 13:09:03;;;;;;;7.80;3.97;;;;;;;;;;5012819;28;95160;-69
2022/11/18 13:11:44;;;;;;;12.98;4.78;;;;;;;;;;5013535;28;95536;-68
2022/11/18 13:19:57;;;;;;;10.60;4.25;;;;;;;;;;5014529;28;93292;-68
2022/11/18 13:25:21;;;;;;;11.57;4.85;;;;;;;;;;5025722;28;92396;-68
2022/11/18 13:27:51;;;;;;;11.85;4.82;;;;;;;;;;5021961;27;93440;-68
2022/11/18 13:30:17;;;;;;;11.33;4.90;;;;;;;;;;5012020;28;92567;-69
2022/11/18 13:32:44;;;;;;;16.85;6.03;;;;;;;;;;5009465;28;92986;-70
2022/11/18 13:35:11;;;;;;;19.88;4.88;;;;;;;;;;5014826;28;96885;-68
2022/11/18 13:37:46;;;;;;;8.93;4.55;;;;;;;;;;5013233;28;93033;-65
2022/11/18 13:40:25;;;;;;;17.42;4.57;;;;;;;;;;5011507;28;94166;-69
2022/11/18 13:42:51;;;;;;;12.57;4.72;;;;;;;;;;5020035;28;93712;-69
2022/11/18 13:45:18;;;;;;;9.43;4.85;;;;;;;;;;5016992;28;92297;-68
2022/11/18 13:48:04;;;;;;;16.83;4.97;;;;;;;;;;5016733;28;94546;-69
2022/11/18 13:50:30;;;;;;;13.35;5.07;;;;;;;;;;5018552;28;93445;-68
2022/11/18 13:53:12;;;;;;;13.07;5.15;;;;;;;;;;5015195;28;93396;-68
2022/11/18 13:55:44;;;;;;;11.48;5.15;;;;;;;;;;5016859;28;96741;-68
2022/11/18 13:58:19;;;;;;;12.50;4.70;;;;;;;;;;5017570;28;92387;-70
2022/11/18 14:00:56;;;;;;;11.02;5.53;;;;;;;;;;5013522;28;95601;-68
2022/11/18 14:03:22;;;;;;;10.52;5.03;;;;;;;;;;5015592;28;94233;-68
2022/11/18 14:05:55;;;;;;;15.38;5.15;;;;;;;;;;5015244;28;92969;-66
2022/11/18 14:08:25;;;;;;;14.98;5.00;;;;;;;;;;5013778;28;93306;-68
2022/11/18 14:10:51;;;;;;;9.93;4.63;;;;;;;;;;5015639;28;92716;-68
2022/11/18 14:13:22;;;;;;;12.43;4.30;;;;;;;;;;5038604;27;92583;-67
2022/11/18 14:15:49;;;;;;;11.55;5.30;;;;;;;;;;5014680;28;93578;-69
2022/11/18 14:18:21;;;;;;;13.05;4.80;;;;;;;;;;5016019;28;91787;-69
2022/11/18 14:20:51;;;;;;;18.10;5.40;;;;;;;;;;5016038;28;93226;-69
2022/11/18 14:23:19;;;;;;;13.90;5.72;;;;;;;;;;5013705;28;94471;-69
2022/11/18 14:25:45;;;;;;;21.08;5.70;;;;;;;;;;5015214;28;94745;-67
2022/11/18 14:28:18;;;;;;;12.52;5.75;;;;;;;;;;5014427;28;96745;-67
2022/11/18 14:30:55;;;;;;;11.88;5.93;;;;;;;;;;5035315;28;93389;-67
2022/11/18 14:33:23;;;;;;;10.73;5.60;;;;;;;;;;5030405;27;92435;-68
2022/11/18 14:35:54;;;;;;;13.02;5.43;;;;;;;;;;5017936;28;94529;-68
2022/11/18 14:38:22;;;;;;;12.80;5.03;;;;;;;;;;5012854;28;92506;-68
2022/11/18 14:41:10;;;;;;;13.73;5.05;;;;;;;;;;5015328;28;93056;-67
2022/11/18 14:43:36;;;;;;;13.68;5.65;;;;;;;;;;5016754;28;93054;-67
2022/11/18 14:46:04;;;;;;;13.85;5.35;;;;;;;;;;5015293;28;92719;-68
2022/11/18 14:48:33;;;;;;;18.45;5.57;;;;;;;;;;5018775;28;93222;-68
2022/11/18 14:51:00;;;;;;;18.63;6.05;;;;;;;;;;5034070;27;95951;-68
2022/11/18 14:53:26;;;;;;;14.43;7.50;;;;;;;;;;5032811;27;92487;-67
2022/11/18 14:55:54;;;;;;;15.30;7.50;;;;;;;;;;5014415;28;93660;-68
2022/11/18 14:58:21;;;;;;;24.20;7.35;;;;;;;;;;5017482;28;93453;-67
2022/11/18 15:00:48;;;;;;;14.73;6.20;;;;;;;;;;5015145;28;93122;-67
2022/11/18 15:03:15;;;;;;;23.02;6.78;;;;;;;;;;5021798;28;93385;-68
2022/11/18 15:05:42;;;;;;;20.75;6.07;;;;;;;;;;5024387;27;93495;-69
2022/11/18 15:08:08;;;;;;;16.58;7.55;;;;;;;;;;5016465;28;94336;-69
2022/11/18 15:10:34;;;;;;;15.63;7.00;;;;;;;;;;5013531;28;93925;-69
2022/11/18 15:13:00;;;;;;;18.95;6.43;;;;;;;;;;5016198;28;92410;-68